sensor_id;sensor_type;location;lat;lon;timestamp;temperature;humidity
19389;DHT22;9830;41.876;23.474;2022-12-29T00:01:36;1.30;99.90
19389;DHT22;9830;41.876;23.474;2022-12-29T00:04:03;1.30;99.90
19389;DHT22;9830;41.876;23.474;2022-12-29T00:06:29;1.30;99.90
19389;DHT22;9830;41.876;23.474;2022-12-29T00:08:55;1.40;99.90
19389;DHT22;9830;41.876;23.474;2022-12-29T00:11:23;1.40;99.90
19389;DHT22;9830;41.876;23.474;2022-12-29T00:13:49;1.50;99.90
19389;DHT22;9830;41.876;23.474;2022-12-29T00:16:47;1.50;99.90
19389;DHT22;9830;41.876;23.474;2022-12-29T00:19:13;1.50;99.90
19389;DHT22;9830;41.876;23.474;2022-12-29T00:21:58;1.50;99.90
19389;DHT22;9830;41.876;23.474;2022-12-29T00:24:45;1.40;99.90
19389;DHT22;9830;41.876;23.474;2022-12-29T00:27:30;1.40;99.90
19389;DHT22;9830;41.876;23.474;2022-12-29T00:30:17;1.50;99.90
19389;DHT22;9830;41.876;23.474;2022-12-29T00:33:12;1.40;99.90
19389;DHT22;9830;41.876;23.474;2022-12-29T00:36:07;1.20;99.90
19389;DHT22;9830;41.876;23.474;2022-12-29T00:38:36;1.00;99.90
19389;DHT22;9830;41.876;23.474;2022-12-29T00:41:21;0.90;99.90
19389;DHT22;9830;41.876;23.474;2022-12-29T00:44:06;0.80;99.90
19389;DHT22;9830;41.876;23.474;2022-12-29T00:46:33;0.80;99.90
19389;DHT22;9830;41.876;23.474;2022-12-29T00:48:59;0.80;99.90
19389;DHT22;9830;41.876;23.474;2022-12-29T00:51:44;0.70;99.90
19389;DHT22;9830;41.876;23.474;2022-12-29T00:54:09;0.80;99.90
19389;DHT22;9830;41.876;23.474;2022-12-29T00:56:35;0.70;99.90
19389;DHT22;9830;41.876;23.474;2022-12-29T00:59:06;0.70;99.90
19389;DHT22;9830;41.876;23.474;2022-12-29T01:01:34;0.70;99.90
19389;DHT22;9830;41.876;23.474;2022-12-29T01:04:00;0.60;99.90
19389;DHT22;9830;41.876;23.474;2022-12-29T01:06:26;0.60;99.90
19389;DHT22;9830;41.876;23.474;2022-12-29T01:08:52;0.50;99.90
19389;DHT22;9830;41.876;23.474;2022-12-29T01:11:39;0.40;99.90
19389;DHT22;9830;41.876;23.474;2022-12-29T01:14:05;0.30;99.90
19389;DHT22;9830;41.876;23.474;2022-12-29T01:16:32;0.20;99.90
19389;DHT22;9830;41.876;23.474;2022-12-29T01:18:58;0.20;99.90
19389;DHT22;9830;41.876;23.474;2022-12-29T01:21:24;0.20;99.90
19389;DHT22;9830;41.876;23.474;2022-12-29T01:23:50;0.10;99.90
19389;DHT22;9830;41.876;23.474;2022-12-29T01:26:16;0.10;99.90
19389;DHT22;9830;41.876;23.474;2022-12-29T01:28:43;0.00;99.90
19389;DHT22;9830;41.876;23.474;2022-12-29T01:31:10;-0.10;99.90
19389;DHT22;9830;41.876;23.474;2022-12-29T01:33:36;-0.20;99.90
19389;DHT22;9830;41.876;23.474;2022-12-29T01:36:03;-0.30;99.90
19389;DHT22;9830;41.876;23.474;2022-12-29T01:38:30;-0.30;99.90
19389;DHT22;9830;41.876;23.474;2022-12-29T01:40:56;-0.40;99.90
19389;DHT22;9830;41.876;23.474;2022-12-29T01:43:37;-0.50;99.90
19389;DHT22;9830;41.876;23.474;2022-12-29T01:46:03;-0.50;99.90
19389;DHT22;9830;41.876;23.474;2022-12-29T01:48:29;-0.60;99.90
19389;DHT22;9830;41.876;23.474;2022-12-29T01:50:55;-0.60;99.90
19389;DHT22;9830;41.876;23.474;2022-12-29T01:53:26;-0.70;99.90
19389;DHT22;9830;41.876;23.474;2022-12-29T01:55:56;-0.70;99.90
19389;DHT22;9830;41.876;23.474;2022-12-29T01:58:26;-0.80;99.90
19389;DHT22;9830;41.876;23.474;2022-12-29T02:00:54;-0.80;99.90
19389;DHT22;9830;41.876;23.474;2022-12-29T02:03:20;-0.80;99.90
19389;DHT22;9830;41.876;23.474;2022-12-29T02:06:11;-0.80;99.90
19389;DHT22;9830;41.876;23.474;2022-12-29T02:08:38;-0.80;99.90
19389;DHT22;9830;41.876;23.474;2022-12-29T02:11:05;-0.90;99.90
19389;DHT22;9830;41.876;23.474;2022-12-29T02:13:31;-0.90;99.90
19389;DHT22;9830;41.876;23.474;2022-12-29T02:24:57;-1.30;99.90
19389;DHT22;9830;41.876;23.474;2022-12-29T02:27:36;-1.40;99.90
19389;DHT22;9830;41.876;23.474;2022-12-29T02:33:19;-1.40;99.90
19389;DHT22;9830;41.876;23.474;2022-12-29T02:40:59;-1.50;99.90
19389;DHT22;9830;41.876;23.474;2022-12-29T02:43:50;-1.50;99.90
19389;DHT22;9830;41.876;23.474;2022-12-29T02:46:33;-1.50;99.90
19389;DHT22;9830;41.876;23.474;2022-12-29T02:49:18;-1.50;99.90
19389;DHT22;9830;41.876;23.474;2022-12-29T02:54:20;-1.60;99.90
19389;DHT22;9830;41.876;23.474;2022-12-29T02:57:35;-1.60;99.90
19389;DHT22;9830;41.876;23.474;2022-12-29T03:00:10;-1.70;99.90
19389;DHT22;9830;41.876;23.474;2022-12-29T03:08:18;-1.70;99.90
19389;DHT22;9830;41.876;23.474;2022-12-29T03:10:51;-1.70;99.90
19389;DHT22;9830;41.876;23.474;2022-12-29T03:13:39;-1.70;99.90
19389;DHT22;9830;41.876;23.474;2022-12-29T03:16:53;-1.80;99.90
19389;DHT22;9830;41.876;23.474;2022-12-29T03:21:56;-1.80;99.90
19389;DHT22;9830;41.876;23.474;2022-12-29T03:24:47;-1.90;99.90
19389;DHT22;9830;41.876;23.474;2022-12-29T03:27:25;-1.90;99.90
19389;DHT22;9830;41.876;23.474;2022-12-29T03:29:57;-1.90;99.90
19389;DHT22;9830;41.876;23.474;2022-12-29T03:32:28;-2.00;99.90
19389;DHT22;9830;41.876;23.474;2022-12-29T03:34:56;-2.00;99.90
19389;DHT22;9830;41.876;23.474;2022-12-29T03:37:27;-2.00;99.90
19389;DHT22;9830;41.876;23.474;2022-12-29T03:39:56;-2.00;99.90
19389;DHT22;9830;41.876;23.474;2022-12-29T03:42:25;-2.00;99.90
19389;DHT22;9830;41.876;23.474;2022-12-29T03:44:54;-2.00;99.90
19389;DHT22;9830;41.876;23.474;2022-12-29T03:47:22;-2.00;99.90
19389;DHT22;9830;41.876;23.474;2022-12-29T03:49:49;-2.10;99.90
19389;DHT22;9830;41.876;23.474;2022-12-29T03:52:15;-2.10;99.90
19389;DHT22;9830;41.876;23.474;2022-12-29T03:54:41;-2.10;99.90
19389;DHT22;9830;41.876;23.474;2022-12-29T03:57:07;-2.10;99.90
19389;DHT22;9830;41.876;23.474;2022-12-29T03:59:33;-2.00;99.90
19389;DHT22;9830;41.876;23.474;2022-12-29T04:01:59;-2.00;99.90
19389;DHT22;9830;41.876;23.474;2022-12-29T04:04:24;-2.10;99.90
19389;DHT22;9830;41.876;23.474;2022-12-29T04:06:50;-2.10;99.90
19389;DHT22;9830;41.876;23.474;2022-12-29T04:09:15;-2.20;99.90
19389;DHT22;9830;41.876;23.474;2022-12-29T04:11:41;-2.20;99.90
19389;DHT22;9830;41.876;23.474;2022-12-29T04:14:07;-2.20;99.90
19389;DHT22;9830;41.876;23.474;2022-12-29T04:16:32;-2.10;99.90
19389;DHT22;9830;41.876;23.474;2022-12-29T04:19:01;-2.10;99.90
19389;DHT22;9830;41.876;23.474;2022-12-29T04:21:27;-2.00;99.90
19389;DHT22;9830;41.876;23.474;2022-12-29T04:23:53;-2.00;99.90
19389;DHT22;9830;41.876;23.474;2022-12-29T04:26:18;-2.10;99.90
19389;DHT22;9830;41.876;23.474;2022-12-29T04:28:44;-2.10;99.90
19389;DHT22;9830;41.876;23.474;2022-12-29T04:31:10;-2.10;99.90
19389;DHT22;9830;41.876;23.474;2022-12-29T04:33:35;-2.20;99.90
19389;DHT22;9830;41.876;23.474;2022-12-29T04:36:01;-2.20;99.90
19389;DHT22;9830;41.876;23.474;2022-12-29T04:38:27;-2.30;99.90
19389;DHT22;9830;41.876;23.474;2022-12-29T04:40:53;-2.30;99.90
19389;DHT22;9830;41.876;23.474;2022-12-29T04:43:19;-2.30;99.90
19389;DHT22;9830;41.876;23.474;2022-12-29T04:45:48;-2.30;99.90
19389;DHT22;9830;41.876;23.474;2022-12-29T04:48:14;-2.30;99.90
19389;DHT22;9830;41.876;23.474;2022-12-29T04:50:41;-2.40;99.90
19389;DHT22;9830;41.876;23.474;2022-12-29T04:53:07;-2.30;99.90
19389;DHT22;9830;41.876;23.474;2022-12-29T04:55:33;-2.30;99.90
19389;DHT22;9830;41.876;23.474;2022-12-29T04:57:59;-2.30;99.90
19389;DHT22;9830;41.876;23.474;2022-12-29T05:00:25;-2.20;99.90
19389;DHT22;9830;41.876;23.474;2022-12-29T05:02:50;-2.20;99.90
19389;DHT22;9830;41.876;23.474;2022-12-29T05:05:17;-2.20;99.90
19389;DHT22;9830;41.876;23.474;2022-12-29T05:07:43;-2.30;99.90
19389;DHT22;9830;41.876;23.474;2022-12-29T05:10:09;-2.30;99.90
19389;DHT22;9830;41.876;23.474;2022-12-29T05:12:37;-2.30;99.90
19389;DHT22;9830;41.876;23.474;2022-12-29T05:15:04;-2.30;99.90
19389;DHT22;9830;41.876;23.474;2022-12-29T05:17:30;-2.20;99.90
19389;DHT22;9830;41.876;23.474;2022-12-29T05:19:55;-2.30;99.90
19389;DHT22;9830;41.876;23.474;2022-12-29T05:22:21;-2.30;99.90
19389;DHT22;9830;41.876;23.474;2022-12-29T05:24:47;-2.40;99.90
19389;DHT22;9830;41.876;23.474;2022-12-29T05:27:13;-2.50;99.90
19389;DHT22;9830;41.876;23.474;2022-12-29T05:29:39;-2.50;99.90
19389;DHT22;9830;41.876;23.474;2022-12-29T05:32:05;-2.50;99.90
19389;DHT22;9830;41.876;23.474;2022-12-29T05:34:31;-2.40;99.90
19389;DHT22;9830;41.876;23.474;2022-12-29T05:36:56;-2.30;99.90
19389;DHT22;9830;41.876;23.474;2022-12-29T05:39:22;-2.30;99.90
19389;DHT22;9830;41.876;23.474;2022-12-29T05:41:48;-2.30;99.90
19389;DHT22;9830;41.876;23.474;2022-12-29T05:44:14;-2.30;99.90
19389;DHT22;9830;41.876;23.474;2022-12-29T05:46:40;-2.40;99.90
19389;DHT22;9830;41.876;23.474;2022-12-29T05:49:06;-2.30;99.90
19389;DHT22;9830;41.876;23.474;2022-12-29T05:51:31;-2.30;99.90
19389;DHT22;9830;41.876;23.474;2022-12-29T05:53:57;-2.30;99.90
19389;DHT22;9830;41.876;23.474;2022-12-29T05:56:23;-2.20;99.90
19389;DHT22;9830;41.876;23.474;2022-12-29T05:58:49;-2.20;99.90
19389;DHT22;9830;41.876;23.474;2022-12-29T06:01:14;-2.20;99.90
19389;DHT22;9830;41.876;23.474;2022-12-29T06:03:40;-2.20;99.90
19389;DHT22;9830;41.876;23.474;2022-12-29T06:06:06;-2.10;99.90
19389;DHT22;9830;41.876;23.474;2022-12-29T06:08:32;-2.00;99.90
19389;DHT22;9830;41.876;23.474;2022-12-29T06:10:58;-1.90;99.90
19389;DHT22;9830;41.876;23.474;2022-12-29T06:13:23;-1.90;99.90
19389;DHT22;9830;41.876;23.474;2022-12-29T06:15:49;-1.90;99.90
19389;DHT22;9830;41.876;23.474;2022-12-29T06:18:15;-1.80;99.90
19389;DHT22;9830;41.876;23.474;2022-12-29T06:20:41;-1.70;99.90
19389;DHT22;9830;41.876;23.474;2022-12-29T06:23:07;-1.60;99.90
19389;DHT22;9830;41.876;23.474;2022-12-29T06:25:32;-1.60;99.90
19389;DHT22;9830;41.876;23.474;2022-12-29T06:27:59;-1.50;99.90
19389;DHT22;9830;41.876;23.474;2022-12-29T06:30:25;-1.50;99.90
19389;DHT22;9830;41.876;23.474;2022-12-29T06:32:51;-1.50;99.90
19389;DHT22;9830;41.876;23.474;2022-12-29T06:35:16;-1.40;99.90
19389;DHT22;9830;41.876;23.474;2022-12-29T06:37:42;-1.30;99.90
19389;DHT22;9830;41.876;23.474;2022-12-29T06:40:09;-1.30;99.90
19389;DHT22;9830;41.876;23.474;2022-12-29T06:42:35;-1.30;99.90
19389;DHT22;9830;41.876;23.474;2022-12-29T06:45:01;-1.20;99.90
19389;DHT22;9830;41.876;23.474;2022-12-29T06:47:26;-1.00;99.90
19389;DHT22;9830;41.876;23.474;2022-12-29T06:49:52;-1.10;99.90
19389;DHT22;9830;41.876;23.474;2022-12-29T06:52:18;-1.00;99.90
19389;DHT22;9830;41.876;23.474;2022-12-29T06:54:43;-0.80;99.90
19389;DHT22;9830;41.876;23.474;2022-12-29T06:57:09;-0.60;99.90
19389;DHT22;9830;41.876;23.474;2022-12-29T06:59:35;-0.70;99.90
19389;DHT22;9830;41.876;23.474;2022-12-29T07:02:01;-0.60;99.90
19389;DHT22;9830;41.876;23.474;2022-12-29T07:04:28;-0.60;99.90
19389;DHT22;9830;41.876;23.474;2022-12-29T07:06:53;-0.60;99.90
19389;DHT22;9830;41.876;23.474;2022-12-29T07:09:19;-0.50;99.90
19389;DHT22;9830;41.876;23.474;2022-12-29T07:11:45;-0.30;99.90
19389;DHT22;9830;41.876;23.474;2022-12-29T07:14:11;-0.10;99.90
19389;DHT22;9830;41.876;23.474;2022-12-29T07:16:37;-0.20;99.90
19389;DHT22;9830;41.876;23.474;2022-12-29T07:19:03;-0.30;99.90
19389;DHT22;9830;41.876;23.474;2022-12-29T07:21:29;-0.20;99.90
19389;DHT22;9830;41.876;23.474;2022-12-29T07:23:55;0.00;99.90
19389;DHT22;9830;41.876;23.474;2022-12-29T07:26:21;0.10;99.90
19389;DHT22;9830;41.876;23.474;2022-12-29T07:28:46;0.20;99.90
19389;DHT22;9830;41.876;23.474;2022-12-29T07:31:18;0.10;99.90
19389;DHT22;9830;41.876;23.474;2022-12-29T07:33:44;0.00;99.90
19389;DHT22;9830;41.876;23.474;2022-12-29T07:36:11;0.00;99.90
19389;DHT22;9830;41.876;23.474;2022-12-29T07:38:38;0.10;99.90
19389;DHT22;9830;41.876;23.474;2022-12-29T07:41:04;0.20;99.90
19389;DHT22;9830;41.876;23.474;2022-12-29T07:43:29;0.20;99.90
19389;DHT22;9830;41.876;23.474;2022-12-29T07:45:55;0.20;99.90
19389;DHT22;9830;41.876;23.474;2022-12-29T07:48:21;0.30;99.90
19389;DHT22;9830;41.876;23.474;2022-12-29T07:50:46;0.30;99.90
19389;DHT22;9830;41.876;23.474;2022-12-29T07:53:12;0.40;99.90
19389;DHT22;9830;41.876;23.474;2022-12-29T07:55:38;0.50;99.90
19389;DHT22;9830;41.876;23.474;2022-12-29T07:58:04;0.30;99.90
19389;DHT22;9830;41.876;23.474;2022-12-29T08:00:29;0.50;99.90
19389;DHT22;9830;41.876;23.474;2022-12-29T08:02:55;0.60;99.90
19389;DHT22;9830;41.876;23.474;2022-12-29T08:05:21;0.80;99.90
19389;DHT22;9830;41.876;23.474;2022-12-29T08:07:47;1.10;99.90
19389;DHT22;9830;41.876;23.474;2022-12-29T08:10:14;1.30;99.90
19389;DHT22;9830;41.876;23.474;2022-12-29T08:12:41;1.20;99.90
19389;DHT22;9830;41.876;23.474;2022-12-29T08:15:08;1.60;99.90
19389;DHT22;9830;41.876;23.474;2022-12-29T08:17:34;2.10;99.90
19389;DHT22;9830;41.876;23.474;2022-12-29T08:20:00;2.20;99.90
19389;DHT22;9830;41.876;23.474;2022-12-29T08:22:26;2.40;99.90
19389;DHT22;9830;41.876;23.474;2022-12-29T08:24:51;3.20;99.90
19389;DHT22;9830;41.876;23.474;2022-12-29T08:27:17;3.50;99.90
19389;DHT22;9830;41.876;23.474;2022-12-29T08:29:43;3.60;99.90
19389;DHT22;9830;41.876;23.474;2022-12-29T08:32:09;3.80;99.90
19389;DHT22;9830;41.876;23.474;2022-12-29T08:34:35;3.70;99.90
19389;DHT22;9830;41.876;23.474;2022-12-29T08:37:00;4.30;99.90
19389;DHT22;9830;41.876;23.474;2022-12-29T08:39:26;4.40;99.90
19389;DHT22;9830;41.876;23.474;2022-12-29T08:41:52;4.40;99.90
19389;DHT22;9830;41.876;23.474;2022-12-29T08:44:18;4.40;99.90
19389;DHT22;9830;41.876;23.474;2022-12-29T08:46:44;4.40;99.90
19389;DHT22;9830;41.876;23.474;2022-12-29T08:49:09;4.00;99.90
19389;DHT22;9830;41.876;23.474;2022-12-29T08:51:35;3.80;99.90
19389;DHT22;9830;41.876;23.474;2022-12-29T08:54:00;3.80;99.90
19389;DHT22;9830;41.876;23.474;2022-12-29T08:56:26;4.00;99.90
19389;DHT22;9830;41.876;23.474;2022-12-29T08:58:53;4.20;99.90
19389;DHT22;9830;41.876;23.474;2022-12-29T09:01:19;4.80;99.90
19389;DHT22;9830;41.876;23.474;2022-12-29T09:03:45;4.60;99.90
19389;DHT22;9830;41.876;23.474;2022-12-29T09:06:12;4.30;99.90
19389;DHT22;9830;41.876;23.474;2022-12-29T09:08:38;4.50;99.90
19389;DHT22;9830;41.876;23.474;2022-12-29T09:11:08;4.70;99.90
19389;DHT22;9830;41.876;23.474;2022-12-29T09:13:34;5.00;99.90
19389;DHT22;9830;41.876;23.474;2022-12-29T09:16:00;5.10;99.90
19389;DHT22;9830;41.876;23.474;2022-12-29T09:18:26;5.20;99.90
19389;DHT22;9830;41.876;23.474;2022-12-29T09:20:59;5.20;99.90
19389;DHT22;9830;41.876;23.474;2022-12-29T09:23:26;5.60;99.90
19389;DHT22;9830;41.876;23.474;2022-12-29T09:25:52;6.30;99.90
19389;DHT22;9830;41.876;23.474;2022-12-29T09:28:18;6.40;99.90
19389;DHT22;9830;41.876;23.474;2022-12-29T09:30:44;6.30;99.90
19389;DHT22;9830;41.876;23.474;2022-12-29T09:33:09;6.20;99.90
19389;DHT22;9830;41.876;23.474;2022-12-29T09:35:35;5.50;99.90
19389;DHT22;9830;41.876;23.474;2022-12-29T09:38:01;5.60;99.90
19389;DHT22;9830;41.876;23.474;2022-12-29T09:40:32;6.00;99.90
19389;DHT22;9830;41.876;23.474;2022-12-29T09:45:40;7.10;99.90
19389;DHT22;9830;41.876;23.474;2022-12-29T09:48:17;7.70;99.90
19389;DHT22;9830;41.876;23.474;2022-12-29T09:50:50;8.30;99.90
19389;DHT22;9830;41.876;23.474;2022-12-29T09:53:32;8.70;99.10
19389;DHT22;9830;41.876;23.474;2022-12-29T09:56:01;8.60;99.90
19389;DHT22;9830;41.876;23.474;2022-12-29T09:58:39;9.00;98.50
19389;DHT22;9830;41.876;23.474;2022-12-29T10:01:38;10.20;96.50
19389;DHT22;9830;41.876;23.474;2022-12-29T10:04:07;11.90;87.40
19389;DHT22;9830;41.876;23.474;2022-12-29T10:06:46;12.70;79.10
19389;DHT22;9830;41.876;23.474;2022-12-29T10:17:49;14.10;65.80
19389;DHT22;9830;41.876;23.474;2022-12-29T10:20:47;14.30;66.30
19389;DHT22;9830;41.876;23.474;2022-12-29T10:25:42;15.60;59.90
19389;DHT22;9830;41.876;23.474;2022-12-29T10:28:23;15.40;59.70
19389;DHT22;9830;41.876;23.474;2022-12-29T10:30:50;15.70;57.80
19389;DHT22;9830;41.876;23.474;2022-12-29T10:33:21;15.80;56.10
19389;DHT22;9830;41.876;23.474;2022-12-29T10:35:50;15.70;55.50
19389;DHT22;9830;41.876;23.474;2022-12-29T10:38:22;16.00;54.00
19389;DHT22;9830;41.876;23.474;2022-12-29T10:43:48;15.70;55.80
19389;DHT22;9830;41.876;23.474;2022-12-29T10:46:27;15.20;57.20
19389;DHT22;9830;41.876;23.474;2022-12-29T10:48:53;14.90;57.30
19389;DHT22;9830;41.876;23.474;2022-12-29T10:51:25;15.10;57.80
19389;DHT22;9830;41.876;23.474;2022-12-29T10:54:23;15.30;58.70
19389;DHT22;9830;41.876;23.474;2022-12-29T10:56:53;14.70;59.80
19389;DHT22;9830;41.876;23.474;2022-12-29T10:59:25;13.90;64.20
19389;DHT22;9830;41.876;23.474;2022-12-29T11:07:18;11.80;79.70
19389;DHT22;9830;41.876;23.474;2022-12-29T11:09:45;11.30;83.20
19389;DHT22;9830;41.876;23.474;2022-12-29T11:12:38;11.00;87.20
19389;DHT22;9830;41.876;23.474;2022-12-29T11:17:46;10.60;91.10
19389;DHT22;9830;41.876;23.474;2022-12-29T11:20:40;10.30;91.50
19389;DHT22;9830;41.876;23.474;2022-12-29T11:23:40;10.30;91.90
19389;DHT22;9830;41.876;23.474;2022-12-29T11:26:21;10.20;92.90
19389;DHT22;9830;41.876;23.474;2022-12-29T11:31:44;10.40;94.00
19389;DHT22;9830;41.876;23.474;2022-12-29T11:34:35;10.60;92.50
19389;DHT22;9830;41.876;23.474;2022-12-29T11:37:11;10.60;91.80
19389;DHT22;9830;41.876;23.474;2022-12-29T11:42:20;10.60;92.10
19389;DHT22;9830;41.876;23.474;2022-12-29T11:44:49;10.40;93.50
19389;DHT22;9830;41.876;23.474;2022-12-29T11:47:42;10.40;93.30
19389;DHT22;9830;41.876;23.474;2022-12-29T11:50:20;10.30;93.90
19389;DHT22;9830;41.876;23.474;2022-12-29T11:52:49;10.30;94.40
19389;DHT22;9830;41.876;23.474;2022-12-29T11:55:24;10.40;94.50
19389;DHT22;9830;41.876;23.474;2022-12-29T11:57:52;10.50;93.80
19389;DHT22;9830;41.876;23.474;2022-12-29T12:00:22;10.40;94.50
19389;DHT22;9830;41.876;23.474;2022-12-29T12:05:22;10.70;93.20
19389;DHT22;9830;41.876;23.474;2022-12-29T12:08:35;10.80;93.80
19389;DHT22;9830;41.876;23.474;2022-12-29T12:11:32;11.00;92.00
19389;DHT22;9830;41.876;23.474;2022-12-29T12:16:48;11.10;91.10
19389;DHT22;9830;41.876;23.474;2022-12-29T12:21:59;11.30;91.50
19389;DHT22;9830;41.876;23.474;2022-12-29T12:24:36;11.20;90.30
19389;DHT22;9830;41.876;23.474;2022-12-29T12:29:57;11.30;88.60
19389;DHT22;9830;41.876;23.474;2022-12-29T12:32:35;11.30;89.50
19389;DHT22;9830;41.876;23.474;2022-12-29T12:35:14;11.30;88.90
19389;DHT22;9830;41.876;23.474;2022-12-29T12:38:03;11.40;90.00
19389;DHT22;9830;41.876;23.474;2022-12-29T12:40:58;11.40;88.50
19389;DHT22;9830;41.876;23.474;2022-12-29T12:51:49;11.50;78.60
19389;DHT22;9830;41.876;23.474;2022-12-29T12:59:57;11.30;80.10
19389;DHT22;9830;41.876;23.474;2022-12-29T13:03:04;11.30;80.00
19389;DHT22;9830;41.876;23.474;2022-12-29T13:18:52;11.00;78.40
19389;DHT22;9830;41.876;23.474;2022-12-29T13:30:20;10.60;80.20
19389;DHT22;9830;41.876;23.474;2022-12-29T13:36:00;10.50;82.50
19389;DHT22;9830;41.876;23.474;2022-12-29T13:38:33;10.30;83.50
19389;DHT22;9830;41.876;23.474;2022-12-29T13:41:04;10.20;84.70
19389;DHT22;9830;41.876;23.474;2022-12-29T13:43:32;10.10;85.60
19389;DHT22;9830;41.876;23.474;2022-12-29T13:46:12;10.00;87.00
19389;DHT22;9830;41.876;23.474;2022-12-29T13:49:16;9.90;86.90
19389;DHT22;9830;41.876;23.474;2022-12-29T13:51:53;9.80;88.50
19389;DHT22;9830;41.876;23.474;2022-12-29T13:57:10;9.70;93.00
19389;DHT22;9830;41.876;23.474;2022-12-29T13:59:50;9.40;96.30
19389;DHT22;9830;41.876;23.474;2022-12-29T14:03:10;9.10;98.20
19389;DHT22;9830;41.876;23.474;2022-12-29T14:08:03;8.60;99.90
19389;DHT22;9830;41.876;23.474;2022-12-29T14:10:36;8.40;99.90
19389;DHT22;9830;41.876;23.474;2022-12-29T14:13:18;8.10;99.90
19389;DHT22;9830;41.876;23.474;2022-12-29T14:15:57;7.90;99.90
19389;DHT22;9830;41.876;23.474;2022-12-29T14:18:29;7.60;99.90
19389;DHT22;9830;41.876;23.474;2022-12-29T14:21:18;7.50;99.90
19389;DHT22;9830;41.876;23.474;2022-12-29T14:23:49;7.30;99.90
19389;DHT22;9830;41.876;23.474;2022-12-29T14:31:51;7.10;99.90
19389;DHT22;9830;41.876;23.474;2022-12-29T14:39:43;6.90;99.90
19389;DHT22;9830;41.876;23.474;2022-12-29T14:44:51;6.80;99.90
19389;DHT22;9830;41.876;23.474;2022-12-29T14:49:52;6.70;99.90
19389;DHT22;9830;41.876;23.474;2022-12-29T14:52:24;6.60;99.90
19389;DHT22;9830;41.876;23.474;2022-12-29T14:54:59;6.50;99.90
19389;DHT22;9830;41.876;23.474;2022-12-29T14:57:49;6.50;99.90
19389;DHT22;9830;41.876;23.474;2022-12-29T15:00:23;6.40;99.90
19389;DHT22;9830;41.876;23.474;2022-12-29T15:03:04;6.30;99.90
19389;DHT22;9830;41.876;23.474;2022-12-29T15:05:46;6.20;99.90
19389;DHT22;9830;41.876;23.474;2022-12-29T15:08:18;6.10;99.90
19389;DHT22;9830;41.876;23.474;2022-12-29T15:11:11;6.00;99.90
19389;DHT22;9830;41.876;23.474;2022-12-29T15:13:41;5.90;99.90
19389;DHT22;9830;41.876;23.474;2022-12-29T15:16:28;5.80;99.90
19389;DHT22;9830;41.876;23.474;2022-12-29T15:18:54;5.80;99.90
19389;DHT22;9830;41.876;23.474;2022-12-29T15:21:31;5.70;99.90
19389;DHT22;9830;41.876;23.474;2022-12-29T15:23:58;5.70;99.90
19389;DHT22;9830;41.876;23.474;2022-12-29T15:26:36;5.70;99.90
19389;DHT22;9830;41.876;23.474;2022-12-29T15:29:03;5.60;99.90
19389;DHT22;9830;41.876;23.474;2022-12-29T15:31:29;5.60;99.90
19389;DHT22;9830;41.876;23.474;2022-12-29T15:34:02;5.50;99.90
19389;DHT22;9830;41.876;23.474;2022-12-29T15:36:37;5.50;99.90
19389;DHT22;9830;41.876;23.474;2022-12-29T15:39:25;5.50;99.90
19389;DHT22;9830;41.876;23.474;2022-12-29T15:42:02;5.30;99.90
19389;DHT22;9830;41.876;23.474;2022-12-29T15:44:43;5.20;99.90
19389;DHT22;9830;41.876;23.474;2022-12-29T15:47:17;5.10;99.90
19389;DHT22;9830;41.876;23.474;2022-12-29T15:49:44;5.10;99.90
19389;DHT22;9830;41.876;23.474;2022-12-29T15:52:10;5.10;99.90
19389;DHT22;9830;41.876;23.474;2022-12-29T15:54:38;5.00;99.90
19389;DHT22;9830;41.876;23.474;2022-12-29T15:57:25;4.90;99.90
19389;DHT22;9830;41.876;23.474;2022-12-29T15:59:52;4.70;99.90
19389;DHT22;9830;41.876;23.474;2022-12-29T16:02:20;4.70;99.90
19389;DHT22;9830;41.876;23.474;2022-12-29T16:04:47;4.60;99.90
19389;DHT22;9830;41.876;23.474;2022-12-29T16:09:54;4.40;99.90
19389;DHT22;9830;41.876;23.474;2022-12-29T16:12:23;4.30;99.90
19389;DHT22;9830;41.876;23.474;2022-12-29T16:14:56;4.20;99.90
19389;DHT22;9830;41.876;23.474;2022-12-29T16:17:26;4.10;99.90
19389;DHT22;9830;41.876;23.474;2022-12-29T16:22:36;3.80;99.90
19389;DHT22;9830;41.876;23.474;2022-12-29T16:25:09;3.70;99.90
19389;DHT22;9830;41.876;23.474;2022-12-29T16:27:41;3.50;99.90
19389;DHT22;9830;41.876;23.474;2022-12-29T16:30:21;3.50;99.90
19389;DHT22;9830;41.876;23.474;2022-12-29T16:32:49;3.30;99.90
19389;DHT22;9830;41.876;23.474;2022-12-29T16:35:19;3.20;99.90
19389;DHT22;9830;41.876;23.474;2022-12-29T16:37:46;3.10;99.90
19389;DHT22;9830;41.876;23.474;2022-12-29T16:42:49;2.90;99.90
19389;DHT22;9830;41.876;23.474;2022-12-29T16:50:30;2.60;99.90
19389;DHT22;9830;41.876;23.474;2022-12-29T16:52:56;2.60;99.90
19389;DHT22;9830;41.876;23.474;2022-12-29T16:55:23;2.50;99.90
19389;DHT22;9830;41.876;23.474;2022-12-29T16:57:51;2.40;99.90
19389;DHT22;9830;41.876;23.474;2022-12-29T17:00:22;2.30;99.90
19389;DHT22;9830;41.876;23.474;2022-12-29T17:02:50;2.20;99.90
19389;DHT22;9830;41.876;23.474;2022-12-29T17:05:18;2.10;99.90
19389;DHT22;9830;41.876;23.474;2022-12-29T17:07:45;2.00;99.90
19389;DHT22;9830;41.876;23.474;2022-12-29T17:10:11;2.00;99.90
19389;DHT22;9830;41.876;23.474;2022-12-29T17:12:40;1.90;99.90
19389;DHT22;9830;41.876;23.474;2022-12-29T17:15:25;1.90;99.90
19389;DHT22;9830;41.876;23.474;2022-12-29T17:17:53;1.80;99.90
19389;DHT22;9830;41.876;23.474;2022-12-29T17:20:28;1.70;99.90
19389;DHT22;9830;41.876;23.474;2022-12-29T17:22:55;1.70;99.90
19389;DHT22;9830;41.876;23.474;2022-12-29T17:25:35;1.70;99.90
19389;DHT22;9830;41.876;23.474;2022-12-29T17:28:22;1.60;99.90
19389;DHT22;9830;41.876;23.474;2022-12-29T17:30:49;1.40;99.90
19389;DHT22;9830;41.876;23.474;2022-12-29T17:33:18;1.40;99.90
19389;DHT22;9830;41.876;23.474;2022-12-29T17:35:45;1.40;99.90
19389;DHT22;9830;41.876;23.474;2022-12-29T17:38:19;1.20;99.90
19389;DHT22;9830;41.876;23.474;2022-12-29T17:40:46;1.20;99.90
19389;DHT22;9830;41.876;23.474;2022-12-29T17:43:13;1.20;99.90
19389;DHT22;9830;41.876;23.474;2022-12-29T17:45:40;1.00;99.90
19389;DHT22;9830;41.876;23.474;2022-12-29T17:48:15;1.00;99.90
19389;DHT22;9830;41.876;23.474;2022-12-29T17:50:41;1.00;99.90
19389;DHT22;9830;41.876;23.474;2022-12-29T17:53:15;1.00;99.90
19389;DHT22;9830;41.876;23.474;2022-12-29T17:55:44;0.90;99.90
19389;DHT22;9830;41.876;23.474;2022-12-29T17:58:31;0.80;99.90
19389;DHT22;9830;41.876;23.474;2022-12-29T18:00:58;0.70;99.90
19389;DHT22;9830;41.876;23.474;2022-12-29T18:03:32;0.70;99.90
19389;DHT22;9830;41.876;23.474;2022-12-29T18:05:59;0.50;99.90
19389;DHT22;9830;41.876;23.474;2022-12-29T18:08:25;0.40;99.90
19389;DHT22;9830;41.876;23.474;2022-12-29T18:10:53;0.30;99.90
19389;DHT22;9830;41.876;23.474;2022-12-29T18:13:23;0.20;99.90
19389;DHT22;9830;41.876;23.474;2022-12-29T18:15:50;0.10;99.90
19389;DHT22;9830;41.876;23.474;2022-12-29T18:18:26;0.10;99.90
19389;DHT22;9830;41.876;23.474;2022-12-29T18:20:54;0.00;99.90
19389;DHT22;9830;41.876;23.474;2022-12-29T18:23:29;-0.10;99.90
19389;DHT22;9830;41.876;23.474;2022-12-29T18:26:06;-0.10;99.90